TimeMST,TemperatureF,Dew PointF,Humidity,Sea Level PressureIn,VisibilityMPH,Wind Direction,Wind SpeedMPH,Gust SpeedMPH,PrecipitationIn,Events,Conditions,WindDirDegrees,DateUTC
12:53 AM,17.1,10.0,74,30.35,10.0,SW,10.4,-,N/A,,Clear,220,2014-01-05 07:53:00
4:53 AM,14.0,8.1,77,30.43,10.0,SSW,8.1,-,N/A,,Clear,200,2014-01-05 11:53:00
5:53 AM,8.6,3.2,79,30.30,10.0,SSW,12.7,-,N/A,,Clear,200,2014-01-05 12:53:00
6:53 AM,8.6,3.2,79,30.32,10.0,SSW,9.2,-,N/A,,Clear,210,2014-01-05 13:53:00
7:53 AM,8.6,1.4,73,30.33,10.0,South,6.9,-,N/A,,Clear,190,2014-01-05 14:53:00
8:53 AM,12.9,6.1,74,30.53,10.0,Calm,Calm,-,N/A,,Clear,0,2014-01-05 15:53:00
9:53 AM,19.9,9.0,62,30.53,10.0,Calm,Calm,-,N/A,,Partly Cloudy,0,2014-01-05 16:53:00
10:53 AM,23.0,8.1,53,30.54,10.0,SW,5.8,-,N/A,,Partly Cloudy,220,2014-01-05 17:53:00
11:53 AM,28.0,9.0,45,30.52,10.0,SSW,8.1,-,N/A,,Partly Cloudy,200,2014-01-05 18:53:00
12:53 PM,28.9,8.1,41,30.51,10.0,WSW,9.2,-,N/A,,Partly Cloudy,250,2014-01-05 19:53:00
1:53 PM,30.0,9.0,41,30.50,10.0,West,10.4,-,N/A,,Partly Cloudy,260,2014-01-05 20:53:00
2:53 PM,30.0,6.1,36,30.50,10.0,WNW,6.9,-,N/A,,Partly Cloudy,290,2014-01-05 21:53:00
3:53 PM,30.9,6.1,35,30.53,10.0,Calm,Calm,-,N/A,,Clear,0,2014-01-05 22:53:00
4:53 PM,28.0,6.1,39,30.55,10.0,NNE,3.5,-,N/A,,Clear,20,2014-01-05 23:53:00
5:53 PM,19.9,8.1,60,30.60,10.0,NE,6.9,-,N/A,,Clear,50,2014-01-06 00:53:00
6:53 PM,16.0,5.0,62,30.62,10.0,NE,8.1,-,N/A,,Clear,40,2014-01-06 01:53:00
7:53 PM,14.0,5.0,67,30.64,10.0,SSW,3.5,-,N/A,,Clear,210,2014-01-06 02:53:00
8:53 PM,15.1,6.1,68,30.63,10.0,NNE,4.6,-,N/A,,Clear,30,2014-01-06 03:53:00
9:53 PM,10.9,5.0,77,30.62,10.0,NNW,3.5,-,N/A,,Clear,330,2014-01-06 04:53:00
10:53 PM,12.0,6.1,77,30.62,10.0,Calm,Calm,-,N/A,,Clear,0,2014-01-06 05:53:00
11:53 PM,7.0,3.0,84,30.62,10.0,Calm,Calm,-,N/A,,Clear,0,2014-01-06 06:53:00